KMSN/MSN METAR and TAF weather

Enter ICAO airport designator
Station Type Date Time Source
KMSN METAR 2021/07/29 17:53 UTC NOAA

KMSN 291753Z 35007KT 10SM BKN032 29/21 A2994 RMK AO2 SLP132 T02940206 10294 20233 51000


Station Type Date Time Source
KMSN Decoded METAR 2021/07/29 17:53 UTC NOAA

MADISON DANE COUNTY RGNL, WI, United States (KMSN) 43-08N 89-21W 261M
Jul 29, 2021 - 01:53 PM EDT / 2021.07.29 1753 UTC
Wind: from the N (350 degrees) at 8 MPH (7 KT):0
Visibility: 10 mile(s):0
Sky conditions: mostly cloudy
Temperature: 84.9 F (29.4 C)
Dew Point: 69.1 F (20.6 C)
Relative Humidity: 59%
Pressure (altimeter): 29.94 in. Hg (1013 hPa)
Pressure tendency: 0.00 inches (0.0 hPa) higher than three hours ago
ob: KMSN 291753Z 35007KT 10SM BKN032 29/21 A2994 RMK AO2 SLP132 T02940206 10294 20233 51000
cycle: 18

Station Type Date Time Source
KMSN TAF 2021/07/29 18:22 UTC NOAA

TAF KMSN 291720Z 2918/3018 36009KT P6SM SCT025
FM292300 01009KT P6SM FEW030
FM300200 02007KT P6SM FEW250
FM300700 06005KT P6SM FEW250
FM301000 03004KT P6SM FEW250

Example: see airport list